createdAt,value
2023-09-17T00:01:55.381Z,64.89
2023-09-17T00:04:22.531Z,64.99
2023-09-17T00:06:49.511Z,64.98
2023-09-17T00:09:16.519Z,64.99
2023-09-17T00:11:43.601Z,64.95
2023-09-17T00:14:10.832Z,64.99
2023-09-17T00:16:40.074Z,64.95
2023-09-17T00:19:08.118Z,64.68
2023-09-17T00:21:35.145Z,65.08
2023-09-17T00:24:02.309Z,64.82
2023-09-17T00:26:29.259Z,64.89
2023-09-17T00:28:56.195Z,64.80
2023-09-17T00:31:23.382Z,64.95
2023-09-17T00:33:50.570Z,65.16
2023-09-17T00:36:17.583Z,65.04
2023-09-17T00:38:44.510Z,65.05
2023-09-17T00:41:11.529Z,64.95
2023-09-17T00:43:38.519Z,65.03
2023-09-17T00:46:06.213Z,65.01
2023-09-17T00:48:33.422Z,64.98
2023-09-17T00:51:00.778Z,64.92
2023-09-17T00:53:28.288Z,64.99
2023-09-17T00:55:56.128Z,65.13
2023-09-17T00:58:24.145Z,65.14
2023-09-17T01:00:52.098Z,64.96
2023-09-17T01:03:19.356Z,65.01
2023-09-17T01:05:47.291Z,64.82
2023-09-17T01:08:14.634Z,65.06
2023-09-17T01:10:42.085Z,64.96
2023-09-17T01:13:10.520Z,65.14
2023-09-17T01:15:38.189Z,65.11
2023-09-17T01:18:07.142Z,65.05
2023-09-17T01:20:42.621Z,65.10
2023-09-17T01:23:38.493Z,65.13
2023-09-17T01:26:14.884Z,65.06
2023-09-17T01:28:42.311Z,65.19
2023-09-17T01:31:10.753Z,65.03
2023-09-17T01:33:37.853Z,65.07
2023-09-17T01:36:10.431Z,65.16
2023-09-17T01:38:47.710Z,65.04
2023-09-17T01:41:17.093Z,65.17
2023-09-17T01:43:46.071Z,65.02
2023-09-17T01:46:13.512Z,64.99
2023-09-17T01:48:44.087Z,64.94
2023-09-17T01:51:12.972Z,65.03
2023-09-17T01:53:40.323Z,65.02
2023-09-17T01:56:07.304Z,65.01
2023-09-17T01:58:35.401Z,65.01
2023-09-17T02:01:02.678Z,65.28
2023-09-17T02:03:30.589Z,65.08
2023-09-17T02:05:57.971Z,65.29
2023-09-17T02:08:25.099Z,65.15
2023-09-17T02:10:52.151Z,65.17
2023-09-17T02:13:19.119Z,65.18
2023-09-17T02:15:46.760Z,65.30
2023-09-17T02:18:13.971Z,65.28
2023-09-17T02:20:41.535Z,65.12
2023-09-17T02:23:10.850Z,65.34
2023-09-17T02:25:37.872Z,65.15
2023-09-17T02:28:05.356Z,65.13
2023-09-17T02:30:32.573Z,65.34
2023-09-17T02:32:59.759Z,65.36
2023-09-17T02:35:26.866Z,65.46
2023-09-17T02:37:53.967Z,65.36
2023-09-17T02:40:22.653Z,65.15
2023-09-17T02:42:51.195Z,65.17
2023-09-17T02:45:20.309Z,65.16
2023-09-17T02:47:47.575Z,65.16
2023-09-17T02:50:14.653Z,65.18
2023-09-17T02:52:41.748Z,65.24
2023-09-17T02:55:09.931Z,65.32
2023-09-17T02:57:37.251Z,65.26
2023-09-17T03:00:10.673Z,65.24
2023-09-17T03:02:40.593Z,65.11
2023-09-17T03:05:12.193Z,65.33
2023-09-17T03:07:44.932Z,65.19
2023-09-17T03:10:13.236Z,65.32
2023-09-17T03:12:40.448Z,65.19
2023-09-17T03:15:08.455Z,65.31
2023-09-17T03:17:39.011Z,65.17
2023-09-17T03:20:15.575Z,65.35
2023-09-17T03:22:42.788Z,65.40
2023-09-17T03:25:10.074Z,65.23
2023-09-17T03:27:37.115Z,65.32
2023-09-17T03:30:07.531Z,65.36
2023-09-17T03:32:34.698Z,65.27
2023-09-17T03:35:02.625Z,65.32
2023-09-17T03:37:29.659Z,65.31
2023-09-17T03:40:26.239Z,65.30
2023-09-17T03:42:53.755Z,65.27
2023-09-17T03:45:21.157Z,65.32
2023-09-17T03:47:49.031Z,65.27
2023-09-17T03:50:21.577Z,65.25
2023-09-17T03:52:53.285Z,65.38
2023-09-17T03:55:21.383Z,65.44
2023-09-17T03:57:49.547Z,65.47
2023-09-17T04:00:17.356Z,65.34
2023-09-17T04:02:45.532Z,65.50
2023-09-17T04:05:15.239Z,65.15
2023-09-17T04:07:45.437Z,65.47
2023-09-17T04:10:13.614Z,65.26
2023-09-17T04:12:42.063Z,65.18
2023-09-17T04:15:29.398Z,65.28
2023-09-17T04:17:56.521Z,65.18
2023-09-17T04:20:25.545Z,65.28
2023-09-17T04:22:52.534Z,65.13
2023-09-17T04:25:21.937Z,65.18
2023-09-17T04:27:49.951Z,65.31
2023-09-17T04:30:18.240Z,65.13
2023-09-17T04:32:47.454Z,64.75
2023-09-17T04:35:19.200Z,64.64
2023-09-17T04:37:48.376Z,62.64
2023-09-17T04:40:15.761Z,63.93
2023-09-17T04:42:47.558Z,64.48
2023-09-17T04:45:49.467Z,64.47
2023-09-17T04:48:17.755Z,64.62
2023-09-17T04:50:48.085Z,64.49
2023-09-17T04:53:16.353Z,64.96
2023-09-17T04:55:43.382Z,65.15
2023-09-17T04:58:10.375Z,65.33
2023-09-17T05:00:38.421Z,65.58
2023-09-17T05:03:05.623Z,65.53
2023-09-17T05:05:32.718Z,65.77
2023-09-17T05:07:59.697Z,65.65
2023-09-17T05:10:27.486Z,65.79
2023-09-17T05:12:54.672Z,65.69
2023-09-17T05:15:22.707Z,65.58
2023-09-17T05:17:50.625Z,65.71
2023-09-17T05:20:19.797Z,65.96
2023-09-17T05:22:46.797Z,65.66
2023-09-17T05:25:13.815Z,65.48
2023-09-17T05:27:40.801Z,65.71
2023-09-17T05:30:08.355Z,65.45
2023-09-17T05:32:35.714Z,65.48
2023-09-17T05:35:04.788Z,65.52
2023-09-17T05:37:32.602Z,65.69
2023-09-17T05:40:00.194Z,65.65
2023-09-17T05:42:27.823Z,65.88
2023-09-17T05:44:54.835Z,65.77
2023-09-17T05:47:22.482Z,65.71
2023-09-17T05:49:49.600Z,65.72
2023-09-17T05:52:17.813Z,65.76
2023-09-17T05:54:44.803Z,65.88
2023-09-17T05:57:12.734Z,65.78
2023-09-17T05:59:39.813Z,65.86
2023-09-17T06:02:07.711Z,65.70
2023-09-17T06:04:34.676Z,65.77
2023-09-17T06:07:01.736Z,65.88
2023-09-17T06:09:28.883Z,65.66
2023-09-17T06:11:55.937Z,65.78
2023-09-17T06:14:23.039Z,65.93
2023-09-17T06:16:57.265Z,64.91
2023-09-17T06:19:24.912Z,65.42
2023-09-17T06:21:52.192Z,65.28
2023-09-17T06:24:19.199Z,65.49
2023-09-17T06:26:46.286Z,65.35
2023-09-17T06:29:13.445Z,65.48
2023-09-17T06:31:41.701Z,65.81
2023-09-17T06:34:09.392Z,65.54
2023-09-17T06:36:38.671Z,65.81
2023-09-17T06:39:08.232Z,65.87
2023-09-17T06:41:38.277Z,65.76
2023-09-17T06:44:06.188Z,65.86
2023-09-17T06:46:36.596Z,66.16
2023-09-17T06:49:04.032Z,66.08
2023-09-17T06:51:31.494Z,66.48
2023-09-17T06:53:59.199Z,66.52
2023-09-17T06:56:26.722Z,66.27
2023-09-17T06:58:54.343Z,66.16
2023-09-17T07:01:22.211Z,66.27
2023-09-17T07:03:49.982Z,66.48
2023-09-17T07:06:17.900Z,66.32
2023-09-17T07:08:45.239Z,66.46
2023-09-17T07:11:12.712Z,66.40
2023-09-17T07:13:41.349Z,66.32
2023-09-17T07:16:08.865Z,66.69
2023-09-17T07:18:36.019Z,67.06
2023-09-17T07:21:03.237Z,67.58
2023-09-17T07:23:31.382Z,67.70
2023-09-17T07:25:58.700Z,67.59
2023-09-17T07:28:27.440Z,67.62
2023-09-17T07:30:57.020Z,67.90
2023-09-17T07:33:24.873Z,67.64
2023-09-17T07:35:52.195Z,67.81
2023-09-17T07:38:19.529Z,67.71
2023-09-17T07:40:48.553Z,67.46
2023-09-17T07:43:15.671Z,67.37
2023-09-17T07:45:42.723Z,67.48
2023-09-17T07:48:09.875Z,67.38
2023-09-17T07:50:36.882Z,67.25
2023-09-17T07:53:03.972Z,67.12
2023-09-17T07:55:31.565Z,67.00
2023-09-17T07:57:58.864Z,67.01
2023-09-17T08:00:26.677Z,66.95
2023-09-17T08:02:53.869Z,67.10
2023-09-17T08:05:21.199Z,67.03
2023-09-17T08:07:48.517Z,67.05
2023-09-17T08:10:15.759Z,66.81
2023-09-17T08:12:42.854Z,66.78
2023-09-17T08:15:10.236Z,66.83
2023-09-17T08:17:38.328Z,66.78
2023-09-17T08:20:08.764Z,66.65
2023-09-17T08:22:35.930Z,66.53
2023-09-17T08:25:03.176Z,66.48
2023-09-17T08:27:30.123Z,66.62
2023-09-17T08:29:57.213Z,66.53
2023-09-17T08:32:24.162Z,66.31
2023-09-17T08:34:51.200Z,66.32
2023-09-17T08:37:19.019Z,66.22
2023-09-17T08:39:46.067Z,66.20
2023-09-17T08:42:14.241Z,66.16
2023-09-17T08:44:43.591Z,66.14
2023-09-17T08:47:10.581Z,66.12
2023-09-17T08:49:37.790Z,66.21
2023-09-17T08:52:08.221Z,66.16
2023-09-17T08:54:42.265Z,66.35
2023-09-17T08:57:12.120Z,66.49
2023-09-17T08:59:44.766Z,66.34
2023-09-17T09:02:24.946Z,66.37
2023-09-17T09:04:52.786Z,66.34
2023-09-17T09:07:23.786Z,66.43
2023-09-17T09:09:52.993Z,66.49
2023-09-17T09:12:20.564Z,66.41
2023-09-17T09:14:48.744Z,66.48
2023-09-17T09:17:15.938Z,66.60
2023-09-17T09:19:43.162Z,66.78
2023-09-17T09:22:10.606Z,66.76
2023-09-17T09:24:48.616Z,66.50
2023-09-17T09:27:15.973Z,66.58
2023-09-17T09:29:45.990Z,66.53
2023-09-17T09:32:14.687Z,66.36
2023-09-17T09:34:43.632Z,66.84
2023-09-17T09:37:11.413Z,66.36
2023-09-17T09:39:39.263Z,66.19
2023-09-17T09:42:07.322Z,65.61
2023-09-17T09:44:36.461Z,65.40
2023-09-17T09:47:04.469Z,65.74
2023-09-17T09:49:41.291Z,65.76
2023-09-17T09:52:08.662Z,66.71
2023-09-17T09:54:39.287Z,66.53
2023-09-17T09:57:06.713Z,66.55
2023-09-17T09:59:38.208Z,66.97
2023-09-17T10:02:06.575Z,66.83
2023-09-17T10:04:39.351Z,66.79
2023-09-17T10:07:07.100Z,66.63
2023-09-17T10:09:34.858Z,66.19
2023-09-17T10:12:01.948Z,65.99
2023-09-17T10:14:29.180Z,65.81
2023-09-17T10:16:57.202Z,65.64
2023-09-17T10:19:27.427Z,65.49
2023-09-17T10:21:57.374Z,65.56
2023-09-17T10:24:25.333Z,65.48
2023-09-17T10:26:53.164Z,65.68
2023-09-17T10:29:22.764Z,66.15
2023-09-17T10:31:50.574Z,65.80
2023-09-17T10:34:19.652Z,65.67
2023-09-17T10:36:49.116Z,65.88
2023-09-17T10:39:16.630Z,65.51
2023-09-17T10:41:46.492Z,65.84
2023-09-17T10:44:16.446Z,66.27
2023-09-17T10:46:47.030Z,66.15
2023-09-17T10:49:15.020Z,66.14
2023-09-17T10:51:45.589Z,66.05
2023-09-17T10:54:12.949Z,66.05
2023-09-17T10:56:43.225Z,66.16
2023-09-17T10:59:14.947Z,66.04
2023-09-17T11:01:44.647Z,66.26
2023-09-17T11:04:17.682Z,66.34
2023-09-17T11:06:48.226Z,66.83
2023-09-17T11:09:16.751Z,65.66
2023-09-17T11:11:45.200Z,66.09
2023-09-17T11:14:14.048Z,66.36
2023-09-17T11:16:41.609Z,66.03
2023-09-17T11:19:14.939Z,66.21
2023-09-17T11:21:49.219Z,65.71
2023-09-17T11:24:19.514Z,65.51
2023-09-17T11:26:47.714Z,65.76
2023-09-17T11:29:16.279Z,65.28
2023-09-17T11:31:55.902Z,65.16
2023-09-17T11:34:23.285Z,65.85
2023-09-17T11:36:52.013Z,66.29
2023-09-17T11:39:22.075Z,66.57
2023-09-17T11:42:04.508Z,66.39
2023-09-17T11:44:35.538Z,67.41
2023-09-17T11:47:02.972Z,67.36
2023-09-17T11:49:30.513Z,66.16
2023-09-17T11:51:58.875Z,66.40
2023-09-17T11:54:32.504Z,66.47
2023-09-17T11:56:59.700Z,67.04
2023-09-17T11:59:28.472Z,66.76
2023-09-17T12:01:59.086Z,67.07
2023-09-17T12:04:29.359Z,67.03
2023-09-17T12:07:00.038Z,67.04
2023-09-17T12:09:41.315Z,67.14
2023-09-17T12:12:08.859Z,67.14
2023-09-17T12:14:37.602Z,66.89
2023-09-17T12:17:05.506Z,67.04
2023-09-17T12:19:33.104Z,66.41
2023-09-17T12:22:01.491Z,66.00
2023-09-17T12:24:36.159Z,66.40
2023-09-17T12:27:10.064Z,66.53
2023-09-17T12:29:38.918Z,66.84
2023-09-17T12:32:06.893Z,66.97
2023-09-17T12:34:37.836Z,66.84
2023-09-17T12:37:11.128Z,67.16
2023-09-17T12:39:38.758Z,66.84
2023-09-17T12:42:05.821Z,66.65
2023-09-17T12:44:33.578Z,66.81
2023-09-17T12:47:00.894Z,66.78
2023-09-17T12:49:28.531Z,66.80
2023-09-17T12:51:55.868Z,66.65
2023-09-17T12:54:24.495Z,66.94
2023-09-17T12:56:52.456Z,66.62
2023-09-17T12:59:36.184Z,66.28
2023-09-17T13:02:05.337Z,66.25
2023-09-17T13:04:44.662Z,66.40
2023-09-17T13:07:25.005Z,66.62
2023-09-17T13:09:57.141Z,66.66
2023-09-17T13:12:25.724Z,66.68
2023-09-17T13:14:53.737Z,67.08
2023-09-17T13:17:27.273Z,67.38
2023-09-17T13:19:55.603Z,66.64
2023-09-17T13:22:23.987Z,66.67
2023-09-17T13:24:51.319Z,66.68
2023-09-17T13:27:20.173Z,67.12
2023-09-17T13:29:55.593Z,67.06
2023-09-17T13:32:23.160Z,66.96
2023-09-17T13:34:51.352Z,67.42
2023-09-17T13:37:20.073Z,67.45
2023-09-17T13:39:51.179Z,67.40
2023-09-17T13:42:18.534Z,66.33
2023-09-17T13:44:46.145Z,66.48
2023-09-17T13:47:13.600Z,66.56
2023-09-17T13:49:43.020Z,66.41
2023-09-17T13:52:11.366Z,66.93
2023-09-17T13:54:40.577Z,67.93
2023-09-17T13:57:08.150Z,68.60
2023-09-17T13:59:35.515Z,68.00
2023-09-17T14:02:05.748Z,67.59
2023-09-17T14:04:34.753Z,67.20
2023-09-17T14:07:02.703Z,67.71
2023-09-17T14:09:30.243Z,67.25
2023-09-17T14:11:57.301Z,66.99
2023-09-17T14:14:25.281Z,67.34
2023-09-17T14:16:52.574Z,67.34
2023-09-17T14:19:20.399Z,67.28
2023-09-17T14:21:48.945Z,67.39
2023-09-17T14:24:16.479Z,68.00
2023-09-17T14:26:44.511Z,67.56
2023-09-17T14:29:11.594Z,67.62
2023-09-17T14:31:40.918Z,67.62
2023-09-17T14:34:10.849Z,67.73
2023-09-17T14:36:38.793Z,67.66
2023-09-17T14:39:06.464Z,67.61
2023-09-17T14:41:33.683Z,67.90
2023-09-17T14:44:00.781Z,67.94
2023-09-17T14:46:30.789Z,67.24
2023-09-17T14:48:57.870Z,66.97
2023-09-17T14:51:24.983Z,66.83
2023-09-17T14:53:52.138Z,67.18
2023-09-17T14:56:19.568Z,67.33
2023-09-17T14:58:47.280Z,67.06
2023-09-17T15:01:26.756Z,66.94
2023-09-17T15:04:02.329Z,66.77
2023-09-17T15:06:31.171Z,66.64
2023-09-17T15:08:58.831Z,67.20
2023-09-17T15:11:26.292Z,67.16
2023-09-17T15:13:53.983Z,66.91
2023-09-17T15:16:22.202Z,66.79
2023-09-17T15:18:52.339Z,66.43
2023-09-17T15:21:19.976Z,66.73
2023-09-17T15:23:47.093Z,66.71
2023-09-17T15:26:14.169Z,67.00
2023-09-17T15:28:44.849Z,67.27
2023-09-17T15:31:12.165Z,67.19
2023-09-17T15:33:40.572Z,66.73
2023-09-17T15:36:08.548Z,66.66
2023-09-17T15:38:35.724Z,67.00
2023-09-17T15:41:04.973Z,67.21
2023-09-17T15:43:36.845Z,67.24
2023-09-17T15:46:07.152Z,67.47
2023-09-17T15:48:36.156Z,67.31
2023-09-17T15:51:05.194Z,67.00
2023-09-17T15:53:33.504Z,67.10
2023-09-17T15:56:01.107Z,67.18
2023-09-17T15:58:28.185Z,67.20
2023-09-17T16:00:56.555Z,67.35
2023-09-17T16:03:23.726Z,66.93
2023-09-17T16:05:51.551Z,66.74
2023-09-17T16:08:18.844Z,66.89
2023-09-17T16:10:46.149Z,66.88
2023-09-17T16:13:14.330Z,67.18
2023-09-17T16:15:43.420Z,67.20
2023-09-17T16:18:10.638Z,67.26
2023-09-17T16:20:38.443Z,66.98
2023-09-17T16:23:05.641Z,67.11
2023-09-17T16:25:34.104Z,67.40
2023-09-17T16:28:03.126Z,68.16
2023-09-17T16:30:30.547Z,67.85
2023-09-17T16:32:58.491Z,67.56
2023-09-17T16:35:25.848Z,67.50
2023-09-17T16:37:54.763Z,67.77
2023-09-17T16:40:22.821Z,67.77
2023-09-17T16:43:05.734Z,67.76
2023-09-17T16:45:38.234Z,67.81
2023-09-17T16:48:06.250Z,67.80
2023-09-17T16:50:33.945Z,68.02
2023-09-17T16:53:01.359Z,68.21
2023-09-17T16:55:29.381Z,67.97
2023-09-17T16:57:56.728Z,68.27
2023-09-17T17:00:25.715Z,68.17
2023-09-17T17:02:53.260Z,68.57
2023-09-17T17:05:21.100Z,68.68
2023-09-17T17:07:48.755Z,68.69
2023-09-17T17:10:16.427Z,68.63
2023-09-17T17:12:43.981Z,68.60
2023-09-17T17:15:12.244Z,68.52
2023-09-17T17:17:39.926Z,68.60
2023-09-17T17:20:08.451Z,68.68
2023-09-17T17:22:49.908Z,68.52
2023-09-17T17:25:21.121Z,68.48
2023-09-17T17:27:50.000Z,68.42
2023-09-17T17:30:17.368Z,68.58
2023-09-17T17:32:46.677Z,68.36
2023-09-17T17:35:16.249Z,68.40
2023-09-17T17:37:45.317Z,68.66
2023-09-17T17:40:12.664Z,68.66
2023-09-17T17:42:39.926Z,68.49
2023-09-17T17:45:08.255Z,68.48
2023-09-17T17:47:35.568Z,68.57
2023-09-17T17:50:02.985Z,68.46
2023-09-17T17:52:30.328Z,68.41
2023-09-17T17:54:58.597Z,68.22
2023-09-17T17:57:26.013Z,68.51
2023-09-17T17:59:53.189Z,68.75
2023-09-17T18:02:20.436Z,69.06
2023-09-17T18:04:50.533Z,69.43
2023-09-17T18:07:17.906Z,69.84
2023-09-17T18:09:46.361Z,69.86
2023-09-17T18:12:14.492Z,69.43
2023-09-17T18:14:42.468Z,69.02
2023-09-17T18:17:10.008Z,69.09
2023-09-17T18:19:37.546Z,69.13
2023-09-17T18:22:05.495Z,68.47
2023-09-17T18:24:33.023Z,69.28
2023-09-17T18:27:00.377Z,68.81
2023-09-17T18:29:32.035Z,68.84
2023-09-17T18:31:59.727Z,68.77
2023-09-17T18:34:29.058Z,68.71
2023-09-17T18:36:57.953Z,68.57
2023-09-17T18:39:26.579Z,68.83
2023-09-17T18:41:54.513Z,68.43
2023-09-17T18:44:22.073Z,68.36
2023-09-17T18:46:56.769Z,68.26
2023-09-17T18:49:34.866Z,68.44
2023-09-17T18:52:06.298Z,68.83
2023-09-17T18:54:40.114Z,68.41
2023-09-17T18:57:10.000Z,67.90
2023-09-17T18:59:38.632Z,67.61
2023-09-17T19:02:06.629Z,67.42
2023-09-17T19:04:36.839Z,67.91
2023-09-17T19:07:04.643Z,67.98
2023-09-17T19:09:33.509Z,67.78
2023-09-17T19:12:05.546Z,68.37
2023-09-17T19:14:37.165Z,67.94
2023-09-17T19:17:09.331Z,67.90
2023-09-17T19:19:37.374Z,68.11
2023-09-17T19:22:10.770Z,68.30
2023-09-17T19:24:38.741Z,68.20
2023-09-17T19:27:07.370Z,67.71
2023-09-17T19:29:36.040Z,67.64
2023-09-17T19:32:05.469Z,67.60
2023-09-17T19:34:35.187Z,67.86
2023-09-17T19:37:03.257Z,67.85
2023-09-17T19:39:40.652Z,67.84
2023-09-17T19:42:12.755Z,67.89
2023-09-17T19:44:42.154Z,67.64
2023-09-17T19:47:11.759Z,67.68
2023-09-17T19:49:40.993Z,67.72
2023-09-17T19:52:08.654Z,67.65
2023-09-17T19:54:36.468Z,67.68
2023-09-17T19:57:06.143Z,67.51
2023-09-17T19:59:34.620Z,67.49
2023-09-17T20:02:02.990Z,67.59
2023-09-17T20:04:32.851Z,67.57
2023-09-17T20:07:02.452Z,67.56
2023-09-17T20:09:32.667Z,67.43
2023-09-17T20:12:01.255Z,67.48
2023-09-17T20:14:29.485Z,67.41
2023-09-17T20:16:57.583Z,67.37
2023-09-17T20:19:25.415Z,67.59
2023-09-17T20:21:53.303Z,67.56
2023-09-17T20:24:22.196Z,67.47
2023-09-17T20:26:49.383Z,67.63
2023-09-17T20:29:16.757Z,67.42
2023-09-17T20:31:44.194Z,67.35
2023-09-17T20:34:16.333Z,67.37
2023-09-17T20:36:44.619Z,67.27
2023-09-17T20:39:16.004Z,67.25
2023-09-17T20:41:46.937Z,67.44
2023-09-17T20:44:14.490Z,67.13
2023-09-17T20:46:42.286Z,67.43
2023-09-17T20:49:11.059Z,67.46
2023-09-17T20:51:38.534Z,67.14
2023-09-17T20:54:07.947Z,67.10
2023-09-17T20:56:36.008Z,67.44
2023-09-17T20:59:03.630Z,67.23
2023-09-17T21:01:31.016Z,67.63
2023-09-17T21:03:58.487Z,67.44
2023-09-17T21:06:26.262Z,67.49
2023-09-17T21:08:54.050Z,67.44
2023-09-17T21:11:21.615Z,67.40
2023-09-17T21:13:49.077Z,67.39
2023-09-17T21:16:17.857Z,67.33
2023-09-17T21:18:53.489Z,66.97
2023-09-17T21:21:35.779Z,66.78
2023-09-17T21:24:12.995Z,66.88
2023-09-17T21:26:42.654Z,66.80
2023-09-17T21:29:13.299Z,66.80
2023-09-17T21:31:44.176Z,66.89
2023-09-17T21:34:15.992Z,66.72
2023-09-17T21:36:45.149Z,66.91
2023-09-17T21:39:14.559Z,66.78
2023-09-17T21:41:43.662Z,66.95
2023-09-17T21:44:11.599Z,66.99
2023-09-17T21:46:39.103Z,67.14
2023-09-17T21:49:06.605Z,66.98
2023-09-17T21:51:34.714Z,67.00
2023-09-17T21:54:02.832Z,66.98
2023-09-17T21:56:30.567Z,67.21
2023-09-17T21:58:58.027Z,67.18
2023-09-17T22:01:28.239Z,67.30
2023-09-17T22:03:56.625Z,67.21
2023-09-17T22:06:26.834Z,67.24
2023-09-17T22:08:54.816Z,66.99
2023-09-17T22:11:23.967Z,67.45
2023-09-17T22:13:51.383Z,67.38
2023-09-17T22:16:18.665Z,67.33
2023-09-17T22:18:46.957Z,67.33
2023-09-17T22:21:14.494Z,67.38
2023-09-17T22:23:42.001Z,67.56
2023-09-17T22:26:10.418Z,67.47
2023-09-17T22:28:42.429Z,67.53
2023-09-17T22:31:17.285Z,67.37
2023-09-17T22:33:46.283Z,67.38
2023-09-17T22:36:14.194Z,67.35
2023-09-17T22:38:43.987Z,67.44
2023-09-17T22:41:19.873Z,67.58
2023-09-17T22:43:49.944Z,67.53
2023-09-17T22:46:18.335Z,67.43
2023-09-17T22:48:56.123Z,67.48
2023-09-17T22:51:24.796Z,67.49
2023-09-17T22:53:54.844Z,67.53
2023-09-17T22:56:22.156Z,67.44
2023-09-17T22:58:49.637Z,67.65
2023-09-17T23:01:21.289Z,67.64
2023-09-17T23:03:48.640Z,67.71
2023-09-17T23:06:15.642Z,67.74
2023-09-17T23:08:43.427Z,67.63
2023-09-17T23:11:11.024Z,67.57
2023-09-17T23:13:38.037Z,67.90
2023-09-17T23:16:05.778Z,67.60
2023-09-17T23:18:34.183Z,67.67
2023-09-17T23:21:05.186Z,67.77
2023-09-17T23:23:32.853Z,67.87
2023-09-17T23:26:02.873Z,67.86
2023-09-17T23:28:34.618Z,67.83
2023-09-17T23:31:07.915Z,67.69
2023-09-17T23:33:35.228Z,67.84
2023-09-17T23:36:05.577Z,67.64
2023-09-17T23:38:32.742Z,67.88
2023-09-17T23:40:59.941Z,67.67
2023-09-17T23:43:27.168Z,67.79
2023-09-17T23:45:54.258Z,67.91
2023-09-17T23:48:21.324Z,67.70
2023-09-17T23:50:51.941Z,67.81
2023-09-17T23:53:19.069Z,67.63
2023-09-17T23:55:49.690Z,67.74
2023-09-17T23:58:18.277Z,67.83
